Los Chavez, New Mexico
Current Conditions -  °F | °C
As of 5:15 AM on Monday 26 Jan 2015 (Local Time) from KE80 Reporting Station
Clear Clear  
Wind Chill: 19°   Ceiling: Unl
Heat Index: 26°   Visibility: 10mi
Dew Point: 24°   Wind: 6mph
Humidity: 93%   Direction: 340°NNW
Pressure: 30.36"   Gusts: NA
Location:  34.5756°N, 106.588°W
Report Text: KE80 261215Z AUTO 34005KT 10SM CLR M04/M05 A3036 RMK AO2 T10361046
Loading
Personal Weather Stations






























Interactive Weather Map New forecast layout! Learn more

10-Day Weather Forecast

Advertisements
Track Severe Weather on mobile